Time;durP1;ratioP1;P1;durP2;ratioP2;P2;SDS_P1;SDS_P2;PMS_P1;PMS_P2;Temp;Humidity;BMP_temperature;BMP_pressure;BME280_temperature;BME280_humidity;BME280_pressure;Samples;Min_cycle;Max_cycle;Signal;HPM_P1;HPM_P2
2021/08/10 00:02:07;;;;;;;14.52;8.55;;;;;;;;;;5101890;28;20206;-71
2021/08/10 00:04:33;;;;;;;18.92;8.20;;;;;;;;;;5100009;28;20036;-71
2021/08/10 00:06:59;;;;;;;15.00;8.35;;;;;;;;;;5101955;28;20047;-71
2021/08/10 00:09:25;;;;;;;20.15;8.93;;;;;;;;;;5102083;28;20035;-71
2021/08/10 00:11:52;;;;;;;14.98;8.70;;;;;;;;;;5103343;28;20035;-71
2021/08/10 00:14:19;;;;;;;15.88;7.72;;;;;;;;;;5102688;28;20059;-71
2021/08/10 00:16:45;;;;;;;15.57;7.72;;;;;;;;;;5102081;28;20070;-71
2021/08/10 00:19:11;;;;;;;18.77;7.05;;;;;;;;;;5101345;28;20143;-71
2021/08/10 00:21:37;;;;;;;17.00;8.00;;;;;;;;;;5100343;28;20040;-71
2021/08/10 00:24:04;;;;;;;18.63;7.60;;;;;;;;;;5100437;27;20048;-71
2021/08/10 00:26:31;;;;;;;14.02;7.68;;;;;;;;;;5098738;28;20036;-70
2021/08/10 00:28:57;;;;;;;19.10;6.90;;;;;;;;;;5100939;28;20116;-70
2021/08/10 00:31:23;;;;;;;18.27;7.60;;;;;;;;;;5097189;28;20046;-71
2021/08/10 00:33:49;;;;;;;19.50;7.25;;;;;;;;;;5098499;28;20070;-70
2021/08/10 00:36:15;;;;;;;23.45;7.63;;;;;;;;;;5101015;28;20478;-71
2021/08/10 00:38:42;;;;;;;18.00;7.40;;;;;;;;;;5098658;28;20135;-71
2021/08/10 00:41:08;;;;;;;20.67;8.43;;;;;;;;;;5098147;28;20475;-71
2021/08/10 00:43:37;;;;;;;17.23;7.45;;;;;;;;;;5104196;27;20044;-70
2021/08/10 00:46:04;;;;;;;27.23;7.63;;;;;;;;;;5099752;28;20051;-71
2021/08/10 00:48:31;;;;;;;17.73;7.82;;;;;;;;;;5099080;28;20051;-71
2021/08/10 00:50:57;;;;;;;14.70;7.50;;;;;;;;;;5100711;28;20070;-71
2021/08/10 00:53:24;;;;;;;24.55;6.78;;;;;;;;;;5100011;28;20040;-71
2021/08/10 00:55:51;;;;;;;22.10;7.95;;;;;;;;;;5094277;28;20056;-71
2021/08/10 00:58:17;;;;;;;17.30;7.18;;;;;;;;;;5097182;28;20050;-71
2021/08/10 01:00:43;;;;;;;19.88;5.95;;;;;;;;;;5094912;28;20055;-70
2021/08/10 01:03:11;;;;;;;16.75;7.78;;;;;;;;;;5097895;28;20465;-71
2021/08/10 01:05:40;;;;;;;21.80;7.53;;;;;;;;;;5098090;28;20044;-71
2021/08/10 01:08:12;;;;;;;22.05;7.72;;;;;;;;;;5095576;28;20047;-71
2021/08/10 01:10:47;;;;;;;18.45;8.10;;;;;;;;;;5097034;28;20419;-71
2021/08/10 01:13:18;;;;;;;18.95;7.47;;;;;;;;;;5096710;28;20055;-71
2021/08/10 01:15:51;;;;;;;17.25;7.20;;;;;;;;;;5098212;28;20063;-71
2021/08/10 01:18:22;;;;;;;18.20;8.23;;;;;;;;;;5093581;28;20061;-71
2021/08/10 01:21:08;;;;;;;16.90;7.03;;;;;;;;;;5098408;28;20043;-71
2021/08/10 01:23:36;;;;;;;20.80;8.00;;;;;;;;;;5094818;28;20062;-71
2021/08/10 01:26:02;;;;;;;17.67;7.63;;;;;;;;;;5091653;28;20063;-71
2021/08/10 01:28:37;;;;;;;21.63;8.90;;;;;;;;;;5103588;28;20039;-71
2021/08/10 01:31:06;;;;;;;21.00;8.20;;;;;;;;;;5098943;28;20040;-71
2021/08/10 01:33:35;;;;;;;22.30;8.52;;;;;;;;;;5096697;28;20051;-70
2021/08/10 01:36:02;;;;;;;21.27;8.60;;;;;;;;;;5101319;28;20209;-71
2021/08/10 01:38:30;;;;;;;18.50;8.98;;;;;;;;;;5096340;28;20440;-71
2021/08/10 01:40:56;;;;;;;15.27;8.52;;;;;;;;;;5092457;28;20071;-71
2021/08/10 01:43:23;;;;;;;34.30;8.75;;;;;;;;;;5092919;28;20081;-70
2021/08/10 01:45:50;;;;;;;23.17;9.93;;;;;;;;;;5098421;28;20047;-71
2021/08/10 01:48:20;;;;;;;17.67;9.77;;;;;;;;;;5099747;28;20198;-71
2021/08/10 01:50:47;;;;;;;25.25;9.80;;;;;;;;;;5100356;28;20494;-71
2021/08/10 01:53:15;;;;;;;18.23;9.70;;;;;;;;;;5097258;28;20044;-71
2021/08/10 01:55:42;;;;;;;19.90;8.90;;;;;;;;;;5098149;28;20111;-71
2021/08/10 01:58:09;;;;;;;19.17;9.35;;;;;;;;;;5090019;28;20048;-71
2021/08/10 02:00:37;;;;;;;22.35;9.27;;;;;;;;;;5096455;28;20079;-70
2021/08/10 02:03:08;;;;;;;18.85;10.02;;;;;;;;;;5095702;28;20039;-71
2021/08/10 02:05:35;;;;;;;19.60;9.95;;;;;;;;;;5098751;28;20441;-71
2021/08/10 02:08:02;;;;;;;24.90;10.15;;;;;;;;;;5096174;28;20051;-71
2021/08/10 02:10:29;;;;;;;21.17;10.07;;;;;;;;;;5096874;28;20051;-71
2021/08/10 02:12:56;;;;;;;20.45;8.98;;;;;;;;;;5098479;28;20039;-71
2021/08/10 02:15:23;;;;;;;23.60;9.10;;;;;;;;;;5097708;28;20039;-71
2021/08/10 02:17:50;;;;;;;26.00;9.10;;;;;;;;;;5095100;28;20062;-71
2021/08/10 02:20:17;;;;;;;20.35;8.98;;;;;;;;;;5097130;28;20076;-71
2021/08/10 02:22:46;;;;;;;20.95;9.68;;;;;;;;;;5090628;28;20055;-71
2021/08/10 02:25:13;;;;;;;21.85;8.77;;;;;;;;;;5094830;28;20134;-71
2021/08/10 02:27:51;;;;;;;22.13;7.68;;;;;;;;;;5104226;28;20048;-71
2021/08/10 02:30:21;;;;;;;18.40;7.55;;;;;;;;;;5102590;28;20472;-71
2021/08/10 02:32:48;;;;;;;21.52;7.63;;;;;;;;;;5102294;28;20064;-71
2021/08/10 02:35:18;;;;;;;16.73;7.88;;;;;;;;;;5100217;28;20415;-70
2021/08/10 02:37:45;;;;;;;21.20;7.97;;;;;;;;;;5091930;28;20059;-71
2021/08/10 02:40:12;;;;;;;25.10;8.15;;;;;;;;;;5092999;28;20536;-71
2021/08/10 02:42:39;;;;;;;26.42;8.35;;;;;;;;;;5093866;28;20480;-70
2021/08/10 02:45:06;;;;;;;15.10;8.32;;;;;;;;;;5095035;28;20059;-71
2021/08/10 02:47:32;;;;;;;23.65;8.57;;;;;;;;;;5096011;28;20035;-71
2021/08/10 02:49:58;;;;;;;22.08;9.18;;;;;;;;;;5095451;28;20135;-71
2021/08/10 02:52:24;;;;;;;28.48;8.77;;;;;;;;;;5093105;28;20054;-71
2021/08/10 02:54:51;;;;;;;22.80;9.85;;;;;;;;;;5094568;28;20043;-71
2021/08/10 02:57:20;;;;;;;22.65;9.48;;;;;;;;;;5095699;28;20036;-71
2021/08/10 02:59:49;;;;;;;21.77;9.77;;;;;;;;;;5093076;28;20067;-71
2021/08/10 03:02:18;;;;;;;23.75;9.52;;;;;;;;;;5090430;28;20040;-71
2021/08/10 03:04:48;;;;;;;22.38;9.57;;;;;;;;;;5094103;28;20047;-71
2021/08/10 03:07:15;;;;;;;23.00;9.60;;;;;;;;;;5099823;28;20039;-71
2021/08/10 03:09:41;;;;;;;23.30;10.02;;;;;;;;;;5100554;28;20044;-71
2021/08/10 03:12:09;;;;;;;22.88;9.30;;;;;;;;;;5098632;28;20484;-71
2021/08/10 03:14:35;;;;;;;29.40;9.77;;;;;;;;;;5095749;28;20051;-71
2021/08/10 03:17:04;;;;;;;23.10;10.48;;;;;;;;;;5093793;28;20066;-71
2021/08/10 03:19:32;;;;;;;19.55;10.35;;;;;;;;;;5101042;28;20131;-71
2021/08/10 03:21:58;;;;;;;25.85;10.82;;;;;;;;;;5103945;28;20054;-71
2021/08/10 03:24:25;;;;;;;28.92;10.27;;;;;;;;;;5103138;28;20054;-71
2021/08/10 03:26:53;;;;;;;24.13;9.43;;;;;;;;;;5101682;28;20071;-71
2021/08/10 03:29:20;;;;;;;21.00;10.00;;;;;;;;;;5095232;28;20046;-71
2021/08/10 03:31:47;;;;;;;21.83;9.85;;;;;;;;;;5130318;27;20514;-71
2021/08/10 03:34:13;;;;;;;24.50;9.95;;;;;;;;;;5100852;28;20474;-71
2021/08/10 03:36:41;;;;;;;30.25;10.68;;;;;;;;;;5103070;28;20121;-70
2021/08/10 03:39:07;;;;;;;27.90;11.13;;;;;;;;;;5102082;28;20411;-71
2021/08/10 03:41:34;;;;;;;31.48;10.82;;;;;;;;;;5101583;28;20074;-71
2021/08/10 03:44:00;;;;;;;21.40;9.70;;;;;;;;;;5099934;28;20040;-71
2021/08/10 03:46:33;;;;;;;26.00;10.35;;;;;;;;;;5098024;28;20112;-70
2021/08/10 03:48:59;;;;;;;22.52;10.93;;;;;;;;;;5099766;28;20134;-71
2021/08/10 03:51:26;;;;;;;24.40;10.20;;;;;;;;;;5102232;27;20166;-71
2021/08/10 03:53:52;;;;;;;31.60;10.80;;;;;;;;;;5101523;28;20051;-71
2021/08/10 03:56:22;;;;;;;24.90;10.90;;;;;;;;;;5099109;28;20070;-71
2021/08/10 03:58:49;;;;;;;19.45;10.23;;;;;;;;;;5095370;28;20479;-71
2021/08/10 04:01:16;;;;;;;20.15;10.73;;;;;;;;;;5099449;28;20032;-71
2021/08/10 04:03:43;;;;;;;23.67;10.80;;;;;;;;;;5098801;28;20101;-71
2021/08/10 04:06:12;;;;;;;26.10;11.68;;;;;;;;;;5102089;28;20035;-71
2021/08/10 04:08:38;;;;;;;31.58;12.05;;;;;;;;;;5098982;28;20361;-71
2021/08/10 04:11:05;;;;;;;19.25;10.82;;;;;;;;;;5099788;27;20165;-71
2021/08/10 04:13:32;;;;;;;24.58;10.35;;;;;;;;;;5095511;28;20363;-71
2021/08/10 04:16:01;;;;;;;20.77;10.23;;;;;;;;;;5095804;28;20036;-71
2021/08/10 04:18:30;;;;;;;23.55;11.13;;;;;;;;;;5094182;28;20040;-71
2021/08/10 04:20:56;;;;;;;26.58;11.32;;;;;;;;;;5094770;28;20388;-71
2021/08/10 04:23:23;;;;;;;26.05;10.75;;;;;;;;;;5098650;28;20437;-71
2021/08/10 04:25:50;;;;;;;22.15;10.45;;;;;;;;;;5098192;28;20042;-71
2021/08/10 04:28:16;;;;;;;28.23;11.68;;;;;;;;;;5102051;28;20047;-71
2021/08/10 04:30:42;;;;;;;23.83;11.77;;;;;;;;;;5097848;28;20517;-69
2021/08/10 04:33:09;;;;;;;35.63;14.40;;;;;;;;;;5095432;27;20062;-71
2021/08/10 04:35:36;;;;;;;22.98;13.15;;;;;;;;;;5096009;28;20054;-71
2021/08/10 04:38:03;;;;;;;25.92;12.68;;;;;;;;;;5094480;28;20093;-71
2021/08/10 04:40:30;;;;;;;21.65;12.70;;;;;;;;;;5104619;27;20039;-71
2021/08/10 04:42:56;;;;;;;33.60;13.02;;;;;;;;;;5097677;27;20039;-70
2021/08/10 04:45:23;;;;;;;25.65;12.30;;;;;;;;;;5097943;27;20044;-71
2021/08/10 04:47:49;;;;;;;27.38;11.95;;;;;;;;;;5099724;28;20040;-71
2021/08/10 04:50:16;;;;;;;27.15;11.95;;;;;;;;;;5098103;28;20047;-72
2021/08/10 04:52:42;;;;;;;26.52;12.10;;;;;;;;;;5097922;28;20376;-71
2021/08/10 04:55:08;;;;;;;24.05;10.60;;;;;;;;;;5103585;28;20047;-71
2021/08/10 04:57:34;;;;;;;22.67;9.73;;;;;;;;;;5098159;28;20044;-71
2021/08/10 05:00:01;;;;;;;23.52;9.55;;;;;;;;;;5093200;28;20116;-71
2021/08/10 05:02:27;;;;;;;29.15;9.32;;;;;;;;;;5098353;28;20482;-71
2021/08/10 05:04:53;;;;;;;19.05;9.20;;;;;;;;;;5097281;28;20117;-71
2021/08/10 05:07:19;;;;;;;16.13;9.48;;;;;;;;;;5097222;28;20054;-71
2021/08/10 05:09:46;;;;;;;24.40;10.15;;;;;;;;;;5095455;28;20491;-71
2021/08/10 05:12:12;;;;;;;24.67;11.70;;;;;;;;;;5098104;28;20069;-71
2021/08/10 05:14:38;;;;;;;24.52;11.50;;;;;;;;;;5097023;28;20040;-71
2021/08/10 05:17:04;;;;;;;23.50;11.20;;;;;;;;;;5096332;28;20050;-71
2021/08/10 05:19:31;;;;;;;23.08;10.85;;;;;;;;;;5097101;28;20047;-71
2021/08/10 05:21:58;;;;;;;22.70;10.30;;;;;;;;;;5099048;28;20043;-71
2021/08/10 05:24:24;;;;;;;24.70;11.20;;;;;;;;;;5099445;28;20035;-71
2021/08/10 05:26:50;;;;;;;25.95;11.88;;;;;;;;;;5100644;28;20051;-71
2021/08/10 05:29:16;;;;;;;23.65;11.70;;;;;;;;;;5099702;28;20058;-71
2021/08/10 05:31:44;;;;;;;29.27;12.85;;;;;;;;;;5101846;28;20116;-71
2021/08/10 05:34:11;;;;;;;19.85;10.52;;;;;;;;;;5099482;28;20113;-71
2021/08/10 05:36:37;;;;;;;20.67;10.82;;;;;;;;;;5092398;28;20126;-71
2021/08/10 05:39:03;;;;;;;18.75;10.73;;;;;;;;;;5099443;28;20461;-71
2021/08/10 05:41:30;;;;;;;22.00;10.02;;;;;;;;;;5102242;28;20090;-71
2021/08/10 05:43:56;;;;;;;21.77;9.85;;;;;;;;;;5101245;28;20039;-71
2021/08/10 05:46:22;;;;;;;22.60;10.23;;;;;;;;;;5093527;28;20043;-71
2021/08/10 05:48:48;;;;;;;23.58;11.10;;;;;;;;;;5094949;28;20115;-71
2021/08/10 05:51:15;;;;;;;20.67;11.20;;;;;;;;;;5099856;28;20088;-71
2021/08/10 05:53:41;;;;;;;20.95;10.30;;;;;;;;;;5097826;28;20058;-71
2021/08/10 05:56:07;;;;;;;23.48;10.82;;;;;;;;;;5091131;28;20165;-71
2021/08/10 05:58:33;;;;;;;21.95;10.80;;;;;;;;;;5094411;28;20063;-71
2021/08/10 06:01:00;;;;;;;20.55;12.63;;;;;;;;;;5100243;28;20109;-70
2021/08/10 06:03:26;;;;;;;17.55;11.65;;;;;;;;;;5096730;28;20403;-71
2021/08/10 06:05:52;;;;;;;24.25;11.30;;;;;;;;;;5095924;28;20115;-71
2021/08/10 06:08:18;;;;;;;22.88;11.68;;;;;;;;;;5097520;28;20047;-71
2021/08/10 06:10:44;;;;;;;25.95;13.50;;;;;;;;;;5096669;28;20044;-71
2021/08/10 06:13:11;;;;;;;21.73;12.40;;;;;;;;;;5097415;28;20039;-72
2021/08/10 06:15:38;;;;;;;24.52;13.90;;;;;;;;;;5098869;28;20044;-73
2021/08/10 06:18:05;;;;;;;18.02;11.93;;;;;;;;;;5097784;28;20039;-73
2021/08/10 06:20:31;;;;;;;20.95;11.82;;;;;;;;;;5096388;28;20131;-72
2021/08/10 06:23:00;;;;;;;20.20;12.00;;;;;;;;;;5099064;28;20039;-72
2021/08/10 06:25:26;;;;;;;18.60;11.23;;;;;;;;;;5096924;28;20428;-72
2021/08/10 06:27:53;;;;;;;19.20;12.23;;;;;;;;;;5124242;27;20506;-72
2021/08/10 06:30:20;;;;;;;17.08;6.68;;;;;;;;;;5094041;28;20056;-72
2021/08/10 06:32:46;;;;;;;14.57;8.25;;;;;;;;;;5094534;28;20055;-73
2021/08/10 06:35:12;;;;;;;13.48;8.77;;;;;;;;;;5096491;27;20035;-73
2021/08/10 06:37:38;;;;;;;10.00;5.72;;;;;;;;;;5094350;28;20073;-72
2021/08/10 06:40:05;;;;;;;12.75;5.65;;;;;;;;;;5092630;28;20484;-72
2021/08/10 06:42:31;;;;;;;6.68;3.50;;;;;;;;;;5126482;27;20088;-72
2021/08/10 06:44:59;;;;;;;14.00;4.38;;;;;;;;;;5091296;28;20070;-72
2021/08/10 06:47:25;;;;;;;11.60;4.82;;;;;;;;;;5093999;28;20044;-73
2021/08/10 06:49:52;;;;;;;9.38;4.63;;;;;;;;;;5097263;28;20074;-73
2021/08/10 06:52:18;;;;;;;7.88;4.28;;;;;;;;;;5096554;28;20085;-73
2021/08/10 06:54:44;;;;;;;9.90;4.78;;;;;;;;;;5104968;28;20416;-73
2021/08/10 06:57:10;;;;;;;7.80;3.67;;;;;;;;;;5103679;28;20467;-72
2021/08/10 06:59:37;;;;;;;6.95;2.85;;;;;;;;;;5100838;28;20059;-72
2021/08/10 07:02:04;;;;;;;7.55;3.53;;;;;;;;;;5093713;28;20082;-72
2021/08/10 07:04:30;;;;;;;6.13;3.45;;;;;;;;;;5096231;28;20072;-72
2021/08/10 07:06:56;;;;;;;6.40;2.95;;;;;;;;;;5097386;28;21874;-72
2021/08/10 07:09:23;;;;;;;7.90;3.13;;;;;;;;;;5101702;28;20479;-72
2021/08/10 07:11:49;;;;;;;8.73;3.25;;;;;;;;;;5100807;28;20479;-72
2021/08/10 07:14:16;;;;;;;8.63;3.40;;;;;;;;;;5101456;27;20056;-72
2021/08/10 07:16:42;;;;;;;11.18;4.13;;;;;;;;;;5099494;28;20066;-72
2021/08/10 07:19:09;;;;;;;7.50;3.33;;;;;;;;;;5129862;27;20586;-72
2021/08/10 07:21:36;;;;;;;9.00;3.42;;;;;;;;;;5097706;28;20611;-72
2021/08/10 07:24:02;;;;;;;7.97;3.70;;;;;;;;;;5103485;27;20053;-72
2021/08/10 07:26:29;;;;;;;6.90;3.40;;;;;;;;;;5107475;27;20043;-72
2021/08/10 07:28:55;;;;;;;6.55;3.40;;;;;;;;;;5102918;27;20039;-72
2021/08/10 07:31:21;;;;;;;9.30;3.53;;;;;;;;;;5101951;27;20065;-72
2021/08/10 07:33:49;;;;;;;5.45;3.30;;;;;;;;;;5099015;27;20048;-72
2021/08/10 07:36:16;;;;;;;6.82;3.75;;;;;;;;;;5098416;27;20047;-72
2021/08/10 07:38:42;;;;;;;7.20;2.80;;;;;;;;;;5093567;28;20353;-72
2021/08/10 07:41:08;;;;;;;8.93;3.25;;;;;;;;;;5098736;27;20554;-72
2021/08/10 07:43:34;;;;;;;8.63;3.20;;;;;;;;;;5103480;28;20044;-73
2021/08/10 07:46:01;;;;;;;8.05;3.28;;;;;;;;;;5104871;27;20105;-72
2021/08/10 07:48:27;;;;;;;7.80;4.15;;;;;;;;;;5132656;27;20110;-72
2021/08/10 07:50:54;;;;;;;10.32;4.78;;;;;;;;;;5097475;28;20090;-72
2021/08/10 07:53:21;;;;;;;8.32;4.30;;;;;;;;;;5096835;28;20040;-72
2021/08/10 07:55:48;;;;;;;9.20;4.55;;;;;;;;;;5096869;28;20762;-72
2021/08/10 07:58:14;;;;;;;10.07;4.65;;;;;;;;;;5109376;28;20051;-72
2021/08/10 08:00:40;;;;;;;12.55;5.65;;;;;;;;;;5105038;28;20050;-73
2021/08/10 08:03:06;;;;;;;9.73;6.18;;;;;;;;;;5105278;28;20047;-73
2021/08/10 08:05:33;;;;;;;14.30;6.90;;;;;;;;;;5099001;28;20093;-73
2021/08/10 08:07:59;;;;;;;13.75;6.82;;;;;;;;;;5096363;28;20036;-72
2021/08/10 08:10:26;;;;;;;16.98;7.20;;;;;;;;;;5101111;27;20441;-72
2021/08/10 08:12:52;;;;;;;19.95;7.72;;;;;;;;;;5101080;28;20571;-72
2021/08/10 08:15:19;;;;;;;18.75;7.63;;;;;;;;;;5102462;28;20130;-73
2021/08/10 08:17:45;;;;;;;17.10;7.03;;;;;;;;;;5100785;28;20603;-73
2021/08/10 08:20:12;;;;;;;16.70;6.90;;;;;;;;;;5096124;28;20154;-73
2021/08/10 08:22:39;;;;;;;12.02;5.22;;;;;;;;;;5098529;27;20071;-73
2021/08/10 08:25:05;;;;;;;11.77;5.85;;;;;;;;;;5098328;27;20124;-80
2021/08/10 08:27:31;;;;;;;15.50;7.40;;;;;;;;;;5097529;27;20067;-76
2021/08/10 08:29:58;;;;;;;22.60;7.95;;;;;;;;;;5104400;28;20056;-76
2021/08/10 08:32:24;;;;;;;18.25;8.95;;;;;;;;;;5098915;27;20573;-76
2021/08/10 08:34:50;;;;;;;20.52;9.38;;;;;;;;;;5090965;27;20054;-75
2021/08/10 08:37:17;;;;;;;17.55;8.50;;;;;;;;;;5091212;28;20085;-75
2021/08/10 08:39:44;;;;;;;18.83;10.32;;;;;;;;;;5094506;28;20486;-75
2021/08/10 08:42:12;;;;;;;17.88;10.00;;;;;;;;;;5096898;28;20028;-75
2021/08/10 08:44:38;;;;;;;15.48;8.32;;;;;;;;;;5098935;28;20070;-76
2021/08/10 08:47:05;;;;;;;13.13;6.50;;;;;;;;;;5103656;28;20088;-76
2021/08/10 08:49:32;;;;;;;11.13;6.05;;;;;;;;;;5098801;28;20549;-76
2021/08/10 08:52:00;;;;;;;8.45;5.13;;;;;;;;;;5100169;27;20043;-76
2021/08/10 08:54:26;;;;;;;10.48;6.32;;;;;;;;;;5102746;27;20048;-76
2021/08/10 08:56:53;;;;;;;14.82;8.18;;;;;;;;;;5102994;27;20051;-75
2021/08/10 08:59:21;;;;;;;10.25;6.10;;;;;;;;;;5101249;27;20475;-75
2021/08/10 09:01:48;;;;;;;8.90;5.38;;;;;;;;;;5104920;27;20036;-76
2021/08/10 09:04:15;;;;;;;14.85;6.93;;;;;;;;;;5100333;28;20094;-75
2021/08/10 09:06:41;;;;;;;11.90;7.72;;;;;;;;;;5095444;28;20039;-75
2021/08/10 09:09:28;;;;;;;11.65;7.93;;;;;;;;;;5100555;27;20039;-76
2021/08/10 09:11:56;;;;;;;11.25;7.82;;;;;;;;;;5099421;28;20054;-75
2021/08/10 09:14:24;;;;;;;12.45;8.63;;;;;;;;;;5099765;28;20050;-76
2021/08/10 09:17:05;;;;;;;15.93;9.52;;;;;;;;;;5098621;27;20439;-76
2021/08/10 09:19:52;;;;;;;19.52;9.40;;;;;;;;;;5100185;27;20404;-76
2021/08/10 09:22:20;;;;;;;15.82;8.00;;;;;;;;;;5096884;28;20040;-76
2021/08/10 09:24:48;;;;;;;18.10;7.90;;;;;;;;;;5093369;28;20178;-76
2021/08/10 09:27:26;;;;;;;15.38;6.55;;;;;;;;;;5094313;27;20803;-76
2021/08/10 09:29:53;;;;;;;10.82;7.43;;;;;;;;;;5093394;28;20096;-76
2021/08/10 09:32:19;;;;;;;15.05;6.25;;;;;;;;;;5093696;28;20535;-76
2021/08/10 09:34:46;;;;;;;18.15;7.57;;;;;;;;;;5099513;28;20121;-76
2021/08/10 09:37:15;;;;;;;15.88;8.40;;;;;;;;;;5097923;27;20044;-76
2021/08/10 09:39:41;;;;;;;13.60;8.88;;;;;;;;;;5103457;27;20062;-76
2021/08/10 09:42:11;;;;;;;17.67;10.15;;;;;;;;;;5096772;28;20032;-76
2021/08/10 09:44:40;;;;;;;19.85;9.32;;;;;;;;;;5100208;27;20093;-76
2021/08/10 09:47:07;;;;;;;20.30;9.73;;;;;;;;;;5105843;27;20357;-76
2021/08/10 09:49:44;;;;;;;14.35;8.43;;;;;;;;;;5105242;27;20040;-76
2021/08/10 09:52:23;;;;;;;15.13;7.75;;;;;;;;;;5104194;27;20055;-76
2021/08/10 09:54:49;;;;;;;18.85;9.20;;;;;;;;;;5106756;27;20056;-77
2021/08/10 09:57:15;;;;;;;13.98;7.28;;;;;;;;;;5098339;27;20043;-76
2021/08/10 09:59:43;;;;;;;15.25;6.78;;;;;;;;;;5099345;28;20104;-76
2021/08/10 10:02:17;;;;;;;15.85;6.93;;;;;;;;;;5094366;27;20531;-76
2021/08/10 10:04:48;;;;;;;14.50;6.60;;;;;;;;;;5099959;27;20063;-77
2021/08/10 10:07:14;;;;;;;7.75;4.50;;;;;;;;;;5095078;27;20036;-77
2021/08/10 10:09:41;;;;;;;8.57;4.20;;;;;;;;;;5102186;28;20107;-77
2021/08/10 10:12:08;;;;;;;7.10;3.97;;;;;;;;;;5100358;27;20403;-77
2021/08/10 10:14:34;;;;;;;15.23;5.15;;;;;;;;;;5097025;27;20108;-76
2021/08/10 10:17:02;;;;;;;8.90;4.25;;;;;;;;;;5128778;27;20100;-76
2021/08/10 10:19:30;;;;;;;10.57;4.88;;;;;;;;;;5105030;28;20097;-76
2021/08/10 10:21:58;;;;;;;6.78;3.97;;;;;;;;;;5097542;28;20142;-76
2021/08/10 10:24:25;;;;;;;9.25;4.22;;;;;;;;;;5095627;28;20100;-76
2021/08/10 10:26:54;;;;;;;6.97;3.50;;;;;;;;;;5108970;28;20479;-76
2021/08/10 10:29:20;;;;;;;5.78;3.50;;;;;;;;;;5105353;28;20059;-76
2021/08/10 10:31:47;;;;;;;8.27;3.63;;;;;;;;;;5100889;27;20058;-76
2021/08/10 10:34:14;;;;;;;7.63;3.78;;;;;;;;;;5098569;28;20051;-76
2021/08/10 10:36:42;;;;;;;6.38;3.60;;;;;;;;;;5097084;28;20055;-76
2021/08/10 10:39:10;;;;;;;7.80;3.88;;;;;;;;;;5096460;28;20032;-76
2021/08/10 10:41:36;;;;;;;7.53;3.70;;;;;;;;;;5096194;27;20040;-76
2021/08/10 10:44:03;;;;;;;12.65;4.30;;;;;;;;;;5100233;27;20102;-76
2021/08/10 10:46:32;;;;;;;9.80;4.63;;;;;;;;;;5105259;28;20046;-76
2021/08/10 10:48:58;;;;;;;10.52;4.90;;;;;;;;;;5108868;28;20424;-76
2021/08/10 10:51:27;;;;;;;9.10;4.75;;;;;;;;;;5106251;28;20393;-76
2021/08/10 10:53:53;;;;;;;9.82;4.78;;;;;;;;;;5104371;28;20082;-76
2021/08/10 10:56:26;;;;;;;9.15;4.75;;;;;;;;;;5106880;28;20137;-73
2021/08/10 10:58:52;;;;;;;8.23;4.30;;;;;;;;;;5107902;28;20134;-75
2021/08/10 11:01:18;;;;;;;9.18;4.18;;;;;;;;;;5104091;28;20039;-76
2021/08/10 11:04:07;;;;;;;7.25;4.28;;;;;;;;;;5100825;28;20461;-76
2021/08/10 11:06:34;;;;;;;7.53;4.13;;;;;;;;;;5099853;28;20047;-76
2021/08/10 11:09:01;;;;;;;9.35;4.40;;;;;;;;;;5101715;28;20074;-76
2021/08/10 11:11:45;;;;;;;7.18;3.65;;;;;;;;;;5102736;28;20047;-76
2021/08/10 11:14:31;;;;;;;7.20;3.80;;;;;;;;;;5099108;28;20075;-76
2021/08/10 11:17:12;;;;;;;7.72;3.95;;;;;;;;;;5100143;28;20123;-76
2021/08/10 11:19:40;;;;;;;8.68;4.20;;;;;;;;;;5095437;28;20040;-76
2021/08/10 11:22:15;;;;;;;10.98;5.07;;;;;;;;;;5096967;28;20069;-76
2021/08/10 11:24:43;;;;;;;9.07;4.43;;;;;;;;;;5098970;28;20043;-76
2021/08/10 11:27:29;;;;;;;6.90;4.57;;;;;;;;;;5099423;28;20051;-76
2021/08/10 11:29:55;;;;;;;9.30;4.75;;;;;;;;;;5102262;28;20095;-80
2021/08/10 11:32:36;;;;;;;8.25;4.55;;;;;;;;;;5103798;28;20055;-77
2021/08/10 11:35:25;;;;;;;9.43;4.47;;;;;;;;;;5102096;28;20044;-76
2021/08/10 11:38:06;;;;;;;8.02;4.00;;;;;;;;;;5100814;27;20515;-76
2021/08/10 11:40:47;;;;;;;7.97;3.33;;;;;;;;;;5105811;28;20403;-76
2021/08/10 11:43:14;;;;;;;7.57;3.08;;;;;;;;;;5102542;28;20062;-76
2021/08/10 11:45:41;;;;;;;5.45;3.00;;;;;;;;;;5111833;28;20050;-76
2021/08/10 11:48:08;;;;;;;7.97;3.20;;;;;;;;;;5108136;28;20074;-76
2021/08/10 11:50:35;;;;;;;10.43;3.95;;;;;;;;;;5114957;28;20055;-76
2021/08/10 11:53:02;;;;;;;5.20;3.17;;;;;;;;;;5112408;27;20044;-76
2021/08/10 11:55:33;;;;;;;7.25;3.10;;;;;;;;;;5113123;27;20539;-76
2021/08/10 11:58:01;;;;;;;5.13;2.85;;;;;;;;;;5112715;27;20039;-76
2021/08/10 12:00:28;;;;;;;7.10;2.35;;;;;;;;;;5114079;27;20063;-76
2021/08/10 12:02:55;;;;;;;5.00;2.47;;;;;;;;;;5112345;27;20159;-76
2021/08/10 12:05:21;;;;;;;5.35;2.85;;;;;;;;;;5116418;27;20130;-76
2021/08/10 12:07:52;;;;;;;7.10;3.20;;;;;;;;;;5115970;27;20118;-76
2021/08/10 12:10:20;;;;;;;8.20;3.42;;;;;;;;;;5107322;27;20126;-76
2021/08/10 12:12:47;;;;;;;6.18;2.75;;;;;;;;;;5118605;27;20040;-76
2021/08/10 12:15:33;;;;;;;6.00;2.65;;;;;;;;;;5117395;27;20043;-75
2021/08/10 12:17:59;;;;;;;6.18;2.60;;;;;;;;;;5118288;27;20096;-76
2021/08/10 12:20:25;;;;;;;6.65;2.70;;;;;;;;;;5113230;27;20044;-77
2021/08/10 12:23:03;;;;;;;6.25;2.50;;;;;;;;;;5114363;27;20035;-76
2021/08/10 12:25:29;;;;;;;7.35;2.50;;;;;;;;;;5112410;27;20039;-77
2021/08/10 12:28:03;;;;;;;5.03;2.92;;;;;;;;;;5112417;27;20039;-76
2021/08/10 12:30:32;;;;;;;7.75;3.10;;;;;;;;;;5111242;27;20047;-76
2021/08/10 12:33:12;;;;;;;6.07;2.70;;;;;;;;;;5111768;27;20090;-77
2021/08/10 12:35:38;;;;;;;5.22;2.50;;;;;;;;;;5111733;27;20105;-76
2021/08/10 12:38:05;;;;;;;6.82;3.33;;;;;;;;;;5114901;27;20043;-76
2021/08/10 12:40:32;;;;;;;6.25;2.78;;;;;;;;;;5117111;27;20126;-77
2021/08/10 12:42:58;;;;;;;6.88;3.25;;;;;;;;;;5120416;27;20088;-76
2021/08/10 12:45:32;;;;;;;6.00;3.03;;;;;;;;;;5115081;27;20127;-76
2021/08/10 12:47:58;;;;;;;7.32;3.05;;;;;;;;;;5115834;27;20483;-76
2021/08/10 12:50:29;;;;;;;6.53;2.90;;;;;;;;;;5114523;27;20081;-76
2021/08/10 12:52:56;;;;;;;5.45;3.08;;;;;;;;;;5113648;27;20447;-77
2021/08/10 12:55:22;;;;;;;6.55;2.67;;;;;;;;;;5112125;27;20048;-76
2021/08/10 12:57:59;;;;;;;8.25;3.10;;;;;;;;;;5111883;27;20502;-76
2021/08/10 13:00:26;;;;;;;8.85;3.22;;;;;;;;;;5114861;27;20502;-76
2021/08/10 13:02:52;;;;;;;7.95;2.60;;;;;;;;;;5114183;27;20055;-76
2021/08/10 13:05:19;;;;;;;6.30;2.45;;;;;;;;;;5111718;27;20051;-77
2021/08/10 13:08:01;;;;;;;7.43;2.75;;;;;;;;;;5112233;27;20047;-76
2021/08/10 13:10:29;;;;;;;6.18;2.60;;;;;;;;;;5109171;28;20036;-77
2021/08/10 13:12:56;;;;;;;7.85;3.25;;;;;;;;;;5104378;27;20108;-76
2021/08/10 13:15:23;;;;;;;10.27;2.90;;;;;;;;;;5101790;27;20043;-76
2021/08/10 13:17:49;;;;;;;7.68;2.85;;;;;;;;;;5106042;27;20164;-76
2021/08/10 13:20:18;;;;;;;7.60;2.85;;;;;;;;;;5104011;27;20047;-76
2021/08/10 13:22:45;;;;;;;6.22;2.97;;;;;;;;;;5103184;27;20475;-76
2021/08/10 13:25:13;;;;;;;5.95;3.00;;;;;;;;;;5102929;27;20043;-76
2021/08/10 13:27:39;;;;;;;6.10;2.70;;;;;;;;;;5103976;27;20043;-76
2021/08/10 13:30:17;;;;;;;5.95;2.78;;;;;;;;;;5101728;27;20171;-76
2021/08/10 13:32:43;;;;;;;9.07;2.95;;;;;;;;;;5106299;27;20054;-76
2021/08/10 13:35:09;;;;;;;6.05;2.58;;;;;;;;;;5105124;27;20795;-76
2021/08/10 13:37:35;;;;;;;7.90;3.55;;;;;;;;;;5102563;27;20282;-76
2021/08/10 13:40:02;;;;;;;7.38;2.63;;;;;;;;;;5103994;27;20085;-76
2021/08/10 13:42:28;;;;;;;10.90;3.28;;;;;;;;;;5103727;27;20123;-76
2021/08/10 13:44:54;;;;;;;5.40;3.13;;;;;;;;;;5107009;27;20113;-76
2021/08/10 13:47:20;;;;;;;6.40;3.22;;;;;;;;;;5101881;27;20047;-76
2021/08/10 13:49:46;;;;;;;8.48;3.30;;;;;;;;;;5104622;27;20059;-76
2021/08/10 13:52:12;;;;;;;10.98;4.63;;;;;;;;;;5106652;27;20725;-76
2021/08/10 13:54:39;;;;;;;6.40;3.67;;;;;;;;;;5103227;27;20140;-76
2021/08/10 13:57:05;;;;;;;8.10;3.17;;;;;;;;;;5101326;27;20040;-76
2021/08/10 13:59:31;;;;;;;9.27;4.18;;;;;;;;;;5103982;27;20079;-76
2021/08/10 14:01:58;;;;;;;6.88;3.50;;;;;;;;;;5104380;27;20096;-76
2021/08/10 14:04:27;;;;;;;5.30;3.30;;;;;;;;;;5103883;27;20043;-76
2021/08/10 14:06:56;;;;;;;6.68;3.53;;;;;;;;;;5102468;27;20186;-76
2021/08/10 14:09:22;;;;;;;5.60;2.70;;;;;;;;;;5102260;27;20392;-76
2021/08/10 14:11:48;;;;;;;6.82;3.55;;;;;;;;;;5109456;27;20061;-76
2021/08/10 14:14:14;;;;;;;9.07;3.28;;;;;;;;;;5104699;27;20505;-76
2021/08/10 14:16:41;;;;;;;8.88;3.05;;;;;;;;;;5103313;27;20047;-76
2021/08/10 14:19:07;;;;;;;7.45;2.83;;;;;;;;;;5106209;28;20067;-76
2021/08/10 14:21:33;;;;;;;6.32;2.85;;;;;;;;;;5103586;27;20463;-76
2021/08/10 14:23:59;;;;;;;6.72;3.20;;;;;;;;;;5103273;27;20065;-76
2021/08/10 14:26:26;;;;;;;7.03;2.85;;;;;;;;;;5101727;27;20467;-76
2021/08/10 14:28:52;;;;;;;5.55;3.05;;;;;;;;;;5107276;28;20106;-76
2021/08/10 14:31:19;;;;;;;6.22;3.03;;;;;;;;;;5103563;27;20050;-76
2021/08/10 14:33:46;;;;;;;8.05;3.13;;;;;;;;;;5099974;27;20056;-76
2021/08/10 14:36:12;;;;;;;4.28;2.50;;;;;;;;;;5105219;27;20108;-77